Time;durP1;ratioP1;P1;durP2;ratioP2;P2;SDS_P1;SDS_P2;PMS_P1;PMS_P2;Temp;Humidity;BMP_temperature;BMP_pressure;BME280_temperature;BME280_humidity;BME280_pressure;Samples;Min_cycle;Max_cycle;Signal;HPM_P1;HPM_P2
2024/03/19 00:04:32;;;;;;;0.80;0.80;;;-2.30;99.90;;;;;;4935917;29;20216;-78
2024/03/19 00:06:57;;;;;;;0.80;0.80;;;-2.30;99.90;;;;;;4934729;29;20229;-74
2024/03/19 00:20:11;;;;;;;0.80;0.80;;;-2.20;99.90;;;;;;4948624;28;20566;-73
2024/03/19 00:23:37;;;;;;;0.80;0.80;;;-2.20;99.90;;;;;;4959424;28;20220;-74
2024/03/19 00:30:51;;;;;;;0.77;0.77;;;-2.20;99.90;;;;;;4893101;29;20240;-74
2024/03/19 00:33:16;;;;;;;0.77;0.77;;;-2.20;99.90;;;;;;4877275;29;20238;-72
2024/03/19 00:39:22;;;;;;;1.00;1.00;;;-2.10;99.90;;;;;;4880684;29;20222;-75
2024/03/19 00:45:40;;;;;;;0.80;0.80;;;-2.20;99.90;;;;;;4880599;29;20241;-72
2024/03/19 00:48:14;;;;;;;0.73;0.73;;;-2.20;99.90;;;;;;4901323;29;20278;-74
2024/03/19 00:53:31;;;;;;;1.08;0.95;;;-2.10;99.90;;;;;;4874332;29;20212;-74
2024/03/19 00:56:40;;;;;;;0.75;0.75;;;-2.10;99.90;;;;;;4878060;29;20700;-73
2024/03/19 00:59:47;;;;;;;0.60;0.60;;;-2.10;99.90;;;;;;4879186;29;20599;-78
2024/03/19 01:02:21;;;;;;;0.80;0.80;;;-2.00;99.90;;;;;;4889361;29;20288;-78
2024/03/19 01:15:54;;;;;;;0.80;0.80;;;-2.00;99.90;;;;;;4917725;28;20204;-74
2024/03/19 01:25:54;;;;;;;0.90;0.90;;;-2.10;99.90;;;;;;4843733;29;20207;-77
2024/03/19 01:28:28;;;;;;;0.68;0.68;;;-2.00;99.90;;;;;;4881975;29;20319;-77
2024/03/19 01:30:57;;;;;;;0.80;0.80;;;-2.10;99.90;;;;;;4902625;29;20265;-77
2024/03/19 01:33:41;;;;;;;0.80;0.80;;;-2.10;99.90;;;;;;4900829;29;20221;-78
2024/03/19 01:39:00;;;;;;;0.70;0.70;;;-2.20;99.90;;;;;;4908109;29;20214;-77
2024/03/19 01:41:34;;;;;;;0.70;0.70;;;-2.20;99.90;;;;;;4918251;28;20214;-77
2024/03/19 01:44:17;;;;;;;0.73;0.73;;;-2.20;99.90;;;;;;4918114;29;20230;-78
2024/03/19 01:46:51;;;;;;;0.70;0.70;;;-2.20;99.90;;;;;;4916256;29;20737;-73
2024/03/19 01:49:36;;;;;;;0.90;0.90;;;-2.20;99.90;;;;;;4915784;29;20559;-78
2024/03/19 01:52:05;;;;;;;0.80;0.80;;;-2.20;99.90;;;;;;4916114;29;20229;-78
2024/03/19 01:57:51;;;;;;;0.82;0.82;;;-2.20;99.90;;;;;;4918555;29;20254;-77
2024/03/19 02:00:17;;;;;;;0.80;0.80;;;-2.20;99.90;;;;;;4963937;28;20662;-75
2024/03/19 02:02:44;;;;;;;0.90;0.90;;;-2.20;99.90;;;;;;5027379;28;20222;-77
2024/03/19 02:06:02;;;;;;;;;;;;;;;;;;;;;
2024/03/19 02:18:15;;;;;;;0.60;0.60;;;-2.20;99.90;;;;;;4973355;28;20218;-74
2024/03/19 02:24:49;;;;;;;0.70;0.70;;;-2.30;99.90;;;;;;4995630;28;20214;-74
2024/03/19 02:34:02;;;;;;;0.80;0.80;;;-2.40;99.90;;;;;;4899665;29;20206;-73
2024/03/19 02:57:45;;;;;;;0.73;0.73;;;-2.50;99.90;;;;;;4805007;29;20216;-73
2024/03/19 03:10:30;;;;;;;0.77;0.77;;;-2.30;99.90;;;;;;4737137;30;20309;-78
2024/03/19 03:12:56;;;;;;;0.70;0.70;;;-2.30;99.90;;;;;;4737952;30;20312;-74
2024/03/19 03:26:34;;;;;;;0.75;0.75;;;-2.20;99.90;;;;;;4794725;29;20207;-79
2024/03/19 03:36:04;;;;;;;0.80;0.80;;;-2.10;99.90;;;;;;4790045;29;20210;-73
2024/03/19 03:38:30;;;;;;;0.80;0.80;;;-2.10;99.90;;;;;;4804793;29;20210;-73
2024/03/19 03:40:55;;;;;;;0.88;0.88;;;-2.00;99.90;;;;;;4804728;29;20561;-73
2024/03/19 03:43:22;;;;;;;1.77;1.63;;;-2.00;99.90;;;;;;4804506;29;20346;-72
2024/03/19 03:45:49;;;;;;;0.80;0.80;;;-2.00;99.90;;;;;;4804660;29;20238;-73
2024/03/19 03:48:15;;;;;;;0.88;0.88;;;-2.00;99.90;;;;;;4804728;29;20301;-72
2024/03/19 03:50:41;;;;;;;0.80;0.80;;;-2.00;99.90;;;;;;4804569;29;20218;-72
2024/03/19 03:53:09;;;;;;;0.88;0.88;;;-2.00;99.90;;;;;;4804717;29;20678;-72
2024/03/19 03:55:34;;;;;;;0.70;0.70;;;-1.90;99.90;;;;;;4827799;29;20212;-73
2024/03/19 03:58:00;;;;;;;0.80;0.80;;;-1.90;99.90;;;;;;4841514;29;20280;-73
2024/03/19 04:00:27;;;;;;;0.80;0.80;;;-1.90;99.90;;;;;;4907034;28;20308;-73
2024/03/19 04:02:53;;;;;;;0.77;0.77;;;-1.90;99.90;;;;;;5058529;28;20649;-73
2024/03/19 04:05:18;;;;;;;0.70;0.70;;;-1.90;99.90;;;;;;5092908;28;20278;-73
2024/03/19 04:07:44;;;;;;;0.55;0.55;;;-1.90;99.90;;;;;;5093790;28;20203;-74
2024/03/19 04:10:12;;;;;;;0.90;0.90;;;-1.90;99.90;;;;;;5093846;28;20625;-73
2024/03/19 04:12:38;;;;;;;0.70;0.70;;;-1.90;99.90;;;;;;5093720;28;20237;-74
2024/03/19 04:15:06;;;;;;;0.70;0.70;;;-1.80;99.90;;;;;;5093670;28;20203;-72
2024/03/19 04:17:33;;;;;;;0.70;0.70;;;-1.90;99.90;;;;;;5093546;28;20203;-71
2024/03/19 04:19:59;;;;;;;0.80;0.80;;;-1.90;99.90;;;;;;5093378;28;20234;-72
2024/03/19 04:22:25;;;;;;;0.70;0.70;;;-1.90;99.90;;;;;;5093474;28;20212;-73
2024/03/19 04:24:51;;;;;;;0.80;0.80;;;-1.90;99.90;;;;;;5093459;28;20678;-72
2024/03/19 04:27:17;;;;;;;0.80;0.80;;;-1.90;99.90;;;;;;5092773;28;20196;-73
2024/03/19 04:29:43;;;;;;;0.80;0.80;;;-1.90;99.90;;;;;;5093196;28;20721;-73
2024/03/19 04:32:08;;;;;;;0.70;0.70;;;-1.90;99.90;;;;;;5077560;28;20692;-73
2024/03/19 04:34:34;;;;;;;0.80;0.80;;;-1.90;99.90;;;;;;5055021;28;20201;-72
2024/03/19 04:37:00;;;;;;;0.70;0.70;;;-1.90;99.90;;;;;;5055139;28;20201;-72
2024/03/19 04:39:26;;;;;;;0.75;0.75;;;-1.90;99.90;;;;;;5072878;28;20664;-72
2024/03/19 04:41:51;;;;;;;0.80;0.80;;;-1.90;99.90;;;;;;5073399;28;20192;-72
2024/03/19 04:44:17;;;;;;;0.80;0.80;;;-1.90;99.90;;;;;;5072913;28;20215;-74
2024/03/19 04:46:43;;;;;;;0.70;0.70;;;-1.90;99.90;;;;;;5072755;28;20303;-73
2024/03/19 04:49:09;;;;;;;0.70;0.70;;;-1.90;99.90;;;;;;5072858;28;20201;-74
2024/03/19 04:51:34;;;;;;;0.70;0.70;;;-1.90;99.90;;;;;;5072692;28;20200;-73
2024/03/19 04:54:00;;;;;;;0.70;0.70;;;-1.90;99.90;;;;;;5072789;28;20672;-73
2024/03/19 04:56:26;;;;;;;0.60;0.60;;;-1.90;99.90;;;;;;5072659;28;20290;-73
2024/03/19 04:58:51;;;;;;;0.73;0.73;;;-1.90;99.90;;;;;;5055716;28;20267;-74
2024/03/19 05:01:18;;;;;;;0.70;0.70;;;-1.90;99.90;;;;;;5072792;28;20232;-74
2024/03/19 05:03:45;;;;;;;0.70;0.70;;;-1.90;99.90;;;;;;5072436;28;20209;-75
2024/03/19 05:06:11;;;;;;;0.80;0.80;;;-1.90;99.90;;;;;;5072799;28;20193;-74
2024/03/19 05:08:37;;;;;;;0.80;0.80;;;-2.00;99.90;;;;;;5072474;28;20203;-74
2024/03/19 05:11:03;;;;;;;0.70;0.70;;;-2.00;99.90;;;;;;5072660;28;20197;-73
2024/03/19 05:13:29;;;;;;;0.70;0.70;;;-2.00;99.90;;;;;;5054403;28;20296;-73
2024/03/19 05:15:55;;;;;;;0.80;0.80;;;-2.00;99.90;;;;;;5072479;28;20276;-73
2024/03/19 05:18:21;;;;;;;0.60;0.60;;;-2.00;99.90;;;;;;5072275;28;20208;-74
2024/03/19 05:20:48;;;;;;;0.70;0.70;;;-2.00;99.90;;;;;;5084557;28;20200;-73
2024/03/19 05:23:14;;;;;;;0.70;0.70;;;-2.00;99.90;;;;;;5092456;28;20212;-74
2024/03/19 05:25:41;;;;;;;0.80;0.80;;;-2.00;99.90;;;;;;5092413;28;20578;-74
2024/03/19 05:28:07;;;;;;;0.75;0.75;;;-1.90;99.90;;;;;;5092658;28;20196;-74
2024/03/19 05:30:32;;;;;;;0.85;0.85;;;-1.90;99.90;;;;;;5089829;28;20198;-74
2024/03/19 05:32:58;;;;;;;0.80;0.80;;;-1.90;99.90;;;;;;5072110;28;20196;-73
2024/03/19 05:35:25;;;;;;;0.82;0.82;;;-1.90;99.90;;;;;;5072232;28;20204;-73
2024/03/19 05:37:52;;;;;;;0.70;0.70;;;-1.80;99.90;;;;;;5072215;28;20192;-73
2024/03/19 05:40:18;;;;;;;0.80;0.80;;;-1.90;99.90;;;;;;5057992;28;20636;-73
2024/03/19 05:42:46;;;;;;;0.70;0.70;;;-1.80;99.90;;;;;;5076199;28;20209;-73
2024/03/19 05:45:13;;;;;;;0.75;0.75;;;-1.90;99.90;;;;;;5076087;28;20246;-74
2024/03/19 05:47:39;;;;;;;0.60;0.60;;;-1.90;99.90;;;;;;5076052;28;20890;-73
2024/03/19 05:50:08;;;;;;;0.60;0.60;;;-1.90;99.90;;;;;;5076130;28;20208;-73
2024/03/19 05:52:34;;;;;;;0.80;0.80;;;-1.90;99.90;;;;;;5058086;28;20205;-73
2024/03/19 05:55:00;;;;;;;0.90;0.90;;;-1.90;99.90;;;;;;5088349;28;20602;-73
2024/03/19 05:57:29;;;;;;;0.70;0.70;;;-1.90;99.90;;;;;;5096331;28;20200;-76
2024/03/19 05:59:54;;;;;;;0.70;0.70;;;-1.90;99.90;;;;;;5096487;28;20230;-76
2024/03/19 06:02:20;;;;;;;0.80;0.80;;;-1.90;99.90;;;;;;5096221;28;20361;-76
2024/03/19 06:04:46;;;;;;;0.80;0.80;;;-1.90;99.90;;;;;;5096765;28;20245;-75
2024/03/19 06:07:11;;;;;;;0.80;0.80;;;-1.90;99.90;;;;;;5096422;28;20213;-76
2024/03/19 06:09:43;;;;;;;0.80;0.80;;;-1.80;99.90;;;;;;5097429;28;20614;-76
2024/03/19 06:12:09;;;;;;;0.70;0.70;;;-1.80;99.90;;;;;;5078923;28;20204;-77
2024/03/19 06:14:35;;;;;;;0.68;0.68;;;-1.70;99.90;;;;;;5096136;28;20196;-77
2024/03/19 06:17:01;;;;;;;0.80;0.80;;;-1.60;99.90;;;;;;5094212;28;20203;-78
2024/03/19 06:19:27;;;;;;;0.80;0.80;;;-1.50;99.90;;;;;;5095537;28;20192;-76
2024/03/19 06:21:52;;;;;;;0.80;0.80;;;-1.40;99.90;;;;;;5095820;28;20218;-76
2024/03/19 06:24:18;;;;;;;0.90;0.90;;;-1.30;99.90;;;;;;5076999;28;20667;-76
2024/03/19 06:26:43;;;;;;;0.70;0.70;;;-1.20;99.90;;;;;;5095704;28;20208;-76
2024/03/19 06:29:09;;;;;;;0.70;0.70;;;-1.00;99.90;;;;;;5095817;28;20199;-76
2024/03/19 06:31:35;;;;;;;0.70;0.70;;;-0.60;99.90;;;;;;5084647;28;20205;-78
2024/03/19 06:34:01;;;;;;;0.85;0.85;;;-0.40;99.90;;;;;;5075632;28;20672;-78
2024/03/19 06:36:26;;;;;;;0.70;0.70;;;-0.20;99.90;;;;;;5092274;28;20218;-78
2024/03/19 06:38:52;;;;;;;0.73;0.73;;;0.00;99.90;;;;;;5095718;28;20206;-78
2024/03/19 06:41:18;;;;;;;0.70;0.70;;;0.10;99.90;;;;;;5095855;28;20215;-78
2024/03/19 06:43:45;;;;;;;0.60;0.60;;;0.30;99.90;;;;;;5077227;28;20691;-77
2024/03/19 06:46:12;;;;;;;0.60;0.60;;;0.60;99.90;;;;;;5095456;28;20277;-78
2024/03/19 06:48:38;;;;;;;0.70;0.70;;;0.80;99.90;;;;;;5095290;28;20208;-78
2024/03/19 06:51:05;;;;;;;0.70;0.70;;;0.90;99.90;;;;;;5076406;28;20694;-78
2024/03/19 06:53:31;;;;;;;0.70;0.70;;;1.10;99.90;;;;;;5095232;28;20716;-77
2024/03/19 06:55:56;;;;;;;0.80;0.80;;;1.20;99.90;;;;;;5095289;28;20272;-78
2024/03/19 06:58:22;;;;;;;0.70;0.70;;;1.10;99.90;;;;;;5095181;28;20253;-78
2024/03/19 07:00:51;;;;;;;0.70;0.70;;;1.00;99.90;;;;;;5095325;28;20196;-77
2024/03/19 07:03:17;;;;;;;0.70;0.70;;;0.90;99.90;;;;;;5095081;28;20208;-78
2024/03/19 07:05:44;;;;;;;0.80;0.80;;;0.90;99.90;;;;;;5095150;28;20676;-78
2024/03/19 07:08:12;;;;;;;0.60;0.60;;;0.90;99.90;;;;;;5077069;28;20291;-73
2024/03/19 07:10:38;;;;;;;0.60;0.60;;;0.80;99.90;;;;;;5094862;28;20674;-73
2024/03/19 07:13:04;;;;;;;0.80;0.80;;;0.80;99.90;;;;;;5082719;28;20204;-73
2024/03/19 07:15:29;;;;;;;1.65;1.10;;;0.90;99.90;;;;;;5076240;28;20233;-72
2024/03/19 07:17:56;;;;;;;0.70;0.70;;;0.90;99.90;;;;;;5094902;28;20204;-74
2024/03/19 07:20:24;;;;;;;0.65;0.65;;;1.00;99.90;;;;;;5094695;28;20203;-72
2024/03/19 07:22:50;;;;;;;0.80;0.80;;;1.10;99.90;;;;;;5094699;28;20231;-73
2024/03/19 07:25:16;;;;;;;0.73;0.73;;;1.10;99.90;;;;;;5094668;28;20537;-74
2024/03/19 07:27:43;;;;;;;0.60;0.60;;;1.20;99.90;;;;;;5076478;28;20682;-73
2024/03/19 07:30:11;;;;;;;1.58;1.48;;;1.20;99.90;;;;;;5094496;28;20188;-73
2024/03/19 07:33:16;;;;;;;0.70;0.70;;;1.30;99.90;;;;;;5094090;28;20200;-72
2024/03/19 07:39:20;;;;;;;0.80;0.80;;;1.50;99.90;;;;;;5052674;28;20293;-77
2024/03/19 07:45:25;;;;;;;0.80;0.80;;;1.70;99.90;;;;;;4997683;28;20226;-77
2024/03/19 07:47:50;;;;;;;0.52;0.52;;;1.70;99.90;;;;;;5069362;28;20217;-73
2024/03/19 07:57:02;;;;;;;0.82;0.82;;;1.90;99.90;;;;;;5091346;28;20215;-74
2024/03/19 08:00:25;;;;;;;0.90;0.90;;;1.80;99.90;;;;;;5076120;28;20603;-74
2024/03/19 08:14:36;;;;;;;0.70;0.70;;;2.50;99.90;;;;;;5000205;28;20208;-79
2024/03/19 08:17:59;;;;;;;;;;;;;;;;;;;;;
2024/03/19 08:20:29;;;;;;;0.70;0.70;;;2.50;99.90;;;;;;4977297;28;20287;-75
2024/03/19 08:34:40;;;;;;;0.80;0.80;;;3.10;99.90;;;;;;4890011;29;20249;-76
2024/03/19 08:37:52;;;;;;;0.70;0.70;;;3.30;99.90;;;;;;4891843;29;20829;-78
2024/03/19 08:40:19;;;;;;;0.80;0.80;;;3.60;99.90;;;;;;4898175;29;20225;-79
2024/03/19 08:42:44;;;;;;;0.90;0.90;;;3.60;99.90;;;;;;4968802;28;21012;-78
2024/03/19 08:45:10;;;;;;;0.80;0.80;;;3.80;99.90;;;;;;4936799;29;20208;-78
2024/03/19 08:47:39;;;;;;;0.70;0.70;;;3.90;99.90;;;;;;4952566;29;20225;-78
2024/03/19 08:50:07;;;;;;;0.60;0.60;;;4.10;99.90;;;;;;4963078;28;20238;-78
2024/03/19 08:52:36;;;;;;;0.60;0.60;;;4.30;99.90;;;;;;4991362;28;20966;-78
2024/03/19 08:55:03;;;;;;;1.60;1.10;;;4.30;99.90;;;;;;5003596;28;20335;-78
2024/03/19 08:57:29;;;;;;;0.85;0.85;;;4.20;99.90;;;;;;5052622;28;20704;-79
2024/03/19 08:59:54;;;;;;;0.90;0.90;;;4.40;99.90;;;;;;5066311;28;20280;-78
2024/03/19 09:02:20;;;;;;;0.70;0.70;;;4.40;99.90;;;;;;5071125;28;20276;-78
2024/03/19 09:04:46;;;;;;;0.60;0.60;;;4.30;99.90;;;;;;5080202;28;20232;-78
2024/03/19 09:07:13;;;;;;;0.70;0.70;;;4.20;99.90;;;;;;5091676;28;20204;-79
2024/03/19 09:09:39;;;;;;;0.50;0.50;;;4.30;99.90;;;;;;5092762;28;20655;-78
2024/03/19 09:12:05;;;;;;;0.80;0.80;;;4.60;99.90;;;;;;5093152;28;20196;-78
2024/03/19 09:14:30;;;;;;;12.73;4.65;;;4.90;99.90;;;;;;5091152;28;20204;-78
2024/03/19 09:16:56;;;;;;;0.80;0.80;;;5.10;99.90;;;;;;5091520;28;20248;-75
2024/03/19 09:19:24;;;;;;;0.70;0.70;;;4.90;99.90;;;;;;5091404;28;20211;-75
2024/03/19 09:21:50;;;;;;;0.70;0.70;;;4.80;99.90;;;;;;5091623;28;20701;-75
2024/03/19 09:24:17;;;;;;;1.10;1.10;;;4.80;99.90;;;;;;5091222;28;20592;-75
2024/03/19 09:26:43;;;;;;;0.80;0.80;;;4.90;99.90;;;;;;5077214;28;20200;-75
2024/03/19 09:29:08;;;;;;;0.80;0.80;;;5.20;99.90;;;;;;5077375;28;20214;-75
2024/03/19 09:31:34;;;;;;;0.70;0.70;;;4.70;99.90;;;;;;5091334;28;20208;-75
2024/03/19 09:34:00;;;;;;;0.68;0.68;;;4.70;99.90;;;;;;5091975;28;20199;-76
2024/03/19 09:36:26;;;;;;;0.70;0.70;;;4.80;99.90;;;;;;5091020;28;20622;-76
2024/03/19 09:38:51;;;;;;;0.80;0.80;;;5.30;99.90;;;;;;5092702;28;20223;-76
2024/03/19 09:41:20;;;;;;;0.80;0.80;;;5.80;99.90;;;;;;5091454;28;20249;-75
2024/03/19 09:43:49;;;;;;;0.73;0.73;;;6.20;99.90;;;;;;5090779;28;20272;-75
2024/03/19 09:46:15;;;;;;;0.75;0.75;;;6.40;99.90;;;;;;5090723;28;20659;-75
2024/03/19 09:48:42;;;;;;;0.70;0.70;;;6.60;99.90;;;;;;5091025;28;20196;-76
2024/03/19 09:51:21;;;;;;;0.65;0.65;;;6.60;99.90;;;;;;5091295;28;20205;-76
2024/03/19 09:53:47;;;;;;;0.60;0.60;;;6.40;99.90;;;;;;5092463;28;20659;-75
2024/03/19 09:56:19;;;;;;;0.70;0.70;;;6.20;99.90;;;;;;5092345;28;20341;-75
2024/03/19 09:58:50;;;;;;;2.40;1.40;;;6.40;99.90;;;;;;5091018;28;20215;-75
2024/03/19 10:01:16;;;;;;;0.68;0.68;;;6.40;99.90;;;;;;5091495;28;20239;-76
2024/03/19 10:03:42;;;;;;;0.70;0.70;;;6.50;99.90;;;;;;5091052;28;20616;-75
2024/03/19 10:06:15;;;;;;;0.70;0.70;;;6.80;99.90;;;;;;5090818;28;20301;-76
2024/03/19 10:08:48;;;;;;;0.70;0.70;;;7.30;99.90;;;;;;5092132;28;20192;-76
2024/03/19 10:11:14;;;;;;;0.63;0.63;;;7.90;99.90;;;;;;5091062;28;20203;-75
2024/03/19 10:13:40;;;;;;;0.60;0.60;;;8.20;99.90;;;;;;5092067;28;20282;-76
2024/03/19 10:16:06;;;;;;;0.68;0.68;;;8.60;99.90;;;;;;5092359;28;20208;-75
2024/03/19 10:18:32;;;;;;;0.73;0.73;;;8.50;99.90;;;;;;5091886;28;20199;-75
2024/03/19 10:20:58;;;;;;;38.50;2.55;;;8.20;99.90;;;;;;5091061;28;20576;-75
2024/03/19 10:23:24;;;;;;;0.88;0.88;;;8.10;99.90;;;;;;5090628;28;20255;-75
2024/03/19 10:25:56;;;;;;;0.70;0.70;;;8.10;99.90;;;;;;5092166;28;20208;-75
2024/03/19 10:28:22;;;;;;;1.05;1.05;;;7.50;99.90;;;;;;5095550;28;20254;-75
2024/03/19 10:30:48;;;;;;;0.80;0.80;;;7.20;99.90;;;;;;5095721;28;20207;-76
2024/03/19 10:33:15;;;;;;;0.60;0.60;;;7.20;99.90;;;;;;5096357;28;20208;-76
2024/03/19 10:35:42;;;;;;;0.70;0.70;;;7.30;99.90;;;;;;5094361;28;20261;-76
2024/03/19 10:38:12;;;;;;;0.70;0.70;;;7.40;99.90;;;;;;5096233;28;20280;-76
2024/03/19 10:40:38;;;;;;;0.70;0.70;;;7.50;99.90;;;;;;5096162;28;20265;-76
2024/03/19 10:43:04;;;;;;;0.68;0.68;;;7.30;99.90;;;;;;5095779;28;20220;-76
2024/03/19 10:45:33;;;;;;;0.60;0.60;;;6.80;99.90;;;;;;5094100;28;20200;-75
2024/03/19 10:47:58;;;;;;;0.70;0.70;;;6.80;99.90;;;;;;5095849;28;20286;-76
2024/03/19 10:50:24;;;;;;;0.77;0.77;;;6.90;99.90;;;;;;5095658;28;20272;-76
2024/03/19 10:53:08;;;;;;;0.70;0.70;;;7.70;99.90;;;;;;5095432;28;20219;-76
2024/03/19 10:55:38;;;;;;;0.82;0.82;;;8.50;99.90;;;;;;5095455;28;20231;-76
2024/03/19 10:58:08;;;;;;;0.70;0.70;;;8.70;99.90;;;;;;5095701;28;20245;-76
2024/03/19 11:00:42;;;;;;;0.70;0.70;;;8.70;99.90;;;;;;5095196;28;20232;-75
2024/03/19 11:03:15;;;;;;;0.60;0.60;;;8.50;99.90;;;;;;5094014;28;20223;-75
2024/03/19 11:06:05;;;;;;;0.90;0.90;;;8.90;99.90;;;;;;5095482;28;20228;-76
2024/03/19 11:08:35;;;;;;;0.60;0.60;;;9.00;99.90;;;;;;5096026;28;20200;-76
2024/03/19 11:11:08;;;;;;;0.60;0.60;;;8.60;99.90;;;;;;5095598;28;20203;-75
2024/03/19 11:13:35;;;;;;;0.70;0.70;;;8.80;99.90;;;;;;5095699;28;20643;-77
2024/03/19 11:16:11;;;;;;;0.70;0.70;;;8.90;99.90;;;;;;5095641;28;20623;-76
2024/03/19 11:18:48;;;;;;;0.82;0.82;;;9.00;99.90;;;;;;5093567;28;20296;-76
2024/03/19 11:21:19;;;;;;;4.68;1.17;;;8.80;99.90;;;;;;5095547;28;20191;-75
2024/03/19 11:23:46;;;;;;;0.70;0.70;;;9.10;99.90;;;;;;5094237;28;20587;-76
2024/03/19 11:26:14;;;;;;;0.70;0.70;;;8.60;99.90;;;;;;5078305;28;20664;-76
2024/03/19 11:28:40;;;;;;;0.70;0.70;;;8.60;99.90;;;;;;5074922;28;20660;-76
2024/03/19 11:31:06;;;;;;;0.70;0.70;;;8.20;99.90;;;;;;5075173;28;20235;-76
2024/03/19 11:33:33;;;;;;;0.70;0.70;;;8.10;99.90;;;;;;5075333;28;20205;-76
2024/03/19 11:35:59;;;;;;;0.70;0.70;;;7.60;99.90;;;;;;5075385;28;20612;-76
2024/03/19 11:38:28;;;;;;;0.70;0.70;;;7.60;99.90;;;;;;5073217;28;20204;-79
2024/03/19 11:40:54;;;;;;;0.60;0.60;;;7.40;99.90;;;;;;5074840;28;20192;-78
2024/03/19 11:43:20;;;;;;;0.80;0.80;;;7.70;99.90;;;;;;5076513;28;20695;-79
2024/03/19 11:45:47;;;;;;;0.65;0.65;;;8.10;99.90;;;;;;5093832;28;20275;-78
2024/03/19 11:48:25;;;;;;;0.95;0.95;;;8.40;99.90;;;;;;5089679;28;20197;-79
2024/03/19 11:50:57;;;;;;;0.60;0.60;;;8.70;99.90;;;;;;5073210;28;20204;-79
2024/03/19 11:53:24;;;;;;;0.63;0.63;;;9.00;99.90;;;;;;5074457;28;20737;-79
2024/03/19 11:55:52;;;;;;;0.80;0.80;;;9.10;99.90;;;;;;5074879;28;20281;-78
2024/03/19 11:58:17;;;;;;;0.80;0.80;;;8.20;99.90;;;;;;5088953;28;20807;-78
2024/03/19 12:00:44;;;;;;;0.70;0.70;;;7.80;99.90;;;;;;5094340;28;20287;-78
2024/03/19 12:03:13;;;;;;;0.70;0.70;;;7.70;99.90;;;;;;5093265;28;20306;-78
2024/03/19 12:05:47;;;;;;;0.70;0.70;;;8.10;99.90;;;;;;5093101;28;20705;-77
2024/03/19 12:08:14;;;;;;;0.70;0.70;;;8.10;99.90;;;;;;5093014;28;20662;-78
2024/03/19 12:10:42;;;;;;;0.70;0.70;;;8.20;99.90;;;;;;5092662;28;20238;-79
2024/03/19 12:13:10;;;;;;;0.60;0.60;;;8.20;99.90;;;;;;5093794;28;20598;-78
2024/03/19 12:15:36;;;;;;;0.60;0.60;;;8.50;99.90;;;;;;5092613;28;20226;-79
2024/03/19 12:18:01;;;;;;;1.50;1.40;;;8.70;99.90;;;;;;5094854;28;20200;-79
2024/03/19 12:20:27;;;;;;;0.88;0.80;;;8.80;99.90;;;;;;5093672;28;20678;-80
2024/03/19 12:22:53;;;;;;;0.70;0.70;;;8.80;99.90;;;;;;5094869;28;20220;-80
2024/03/19 12:25:24;;;;;;;0.68;0.68;;;8.70;99.90;;;;;;5095166;28;20269;-77
2024/03/19 12:27:50;;;;;;;0.70;0.70;;;8.50;99.90;;;;;;5093651;28;20265;-77
2024/03/19 12:30:18;;;;;;;0.60;0.60;;;8.70;99.90;;;;;;5095810;28;20196;-77
2024/03/19 12:35:33;;;;;;;0.70;0.70;;;9.30;99.90;;;;;;5076701;28;20205;-77
2024/03/19 12:37:59;;;;;;;0.70;0.70;;;9.10;99.90;;;;;;5074724;28;20667;-76
2024/03/19 12:40:25;;;;;;;1.13;0.90;;;8.70;99.90;;;;;;5074495;28;20216;-77
2024/03/19 12:42:52;;;;;;;0.60;0.60;;;8.50;99.90;;;;;;5074964;28;20586;-78
2024/03/19 12:45:19;;;;;;;0.60;0.60;;;8.60;99.90;;;;;;5089945;28;20206;-78
2024/03/19 12:47:45;;;;;;;0.60;0.60;;;8.70;99.90;;;;;;5094779;28;20583;-77
2024/03/19 12:50:12;;;;;;;0.60;0.60;;;8.30;99.90;;;;;;5093485;28;20677;-75
2024/03/19 12:52:38;;;;;;;0.50;0.50;;;8.10;99.90;;;;;;5093271;28;20235;-74
2024/03/19 12:55:05;;;;;;;0.60;0.60;;;7.60;99.90;;;;;;5093526;28;20201;-74
2024/03/19 12:57:31;;;;;;;0.70;0.70;;;7.20;99.90;;;;;;5093122;28;20652;-74
2024/03/19 12:59:56;;;;;;;1.95;1.45;;;7.30;99.90;;;;;;5093350;28;20215;-75
2024/03/19 13:02:22;;;;;;;0.70;0.70;;;7.20;99.90;;;;;;5092857;28;20208;-74
2024/03/19 13:04:48;;;;;;;0.60;0.60;;;7.00;99.90;;;;;;5092958;28;20272;-75
2024/03/19 13:07:13;;;;;;;0.70;0.70;;;6.90;99.90;;;;;;5091973;28;20200;-74
2024/03/19 13:09:39;;;;;;;0.70;0.70;;;7.10;99.90;;;;;;5092625;28;21410;-74
2024/03/19 13:12:05;;;;;;;0.70;0.70;;;7.10;99.90;;;;;;5093282;28;20200;-75
2024/03/19 13:14:31;;;;;;;0.70;0.70;;;7.30;99.90;;;;;;5091332;28;20685;-76
2024/03/19 13:16:57;;;;;;;0.80;0.80;;;7.40;99.90;;;;;;5092757;28;20192;-75
2024/03/19 13:19:24;;;;;;;0.70;0.70;;;7.30;99.90;;;;;;5092576;28;20223;-75
2024/03/19 13:21:50;;;;;;;0.70;0.70;;;7.10;99.90;;;;;;5092978;28;20192;-75
2024/03/19 13:24:16;;;;;;;0.80;0.80;;;7.10;99.90;;;;;;5093024;28;20272;-75
2024/03/19 13:26:42;;;;;;;0.60;0.60;;;7.00;99.90;;;;;;5092935;28;20714;-75
2024/03/19 13:29:07;;;;;;;0.73;0.73;;;6.80;99.90;;;;;;5092665;28;20275;-75
2024/03/19 13:31:33;;;;;;;0.70;0.70;;;7.00;99.90;;;;;;5092714;28;20707;-75
2024/03/19 13:33:59;;;;;;;0.70;0.70;;;6.50;99.90;;;;;;5091349;28;20218;-75
2024/03/19 13:36:25;;;;;;;0.60;0.60;;;6.40;99.90;;;;;;5092694;28;20192;-75
2024/03/19 13:38:51;;;;;;;0.70;0.70;;;6.50;99.90;;;;;;5092694;28;20189;-76
2024/03/19 13:41:24;;;;;;;0.70;0.70;;;6.60;99.90;;;;;;5092418;28;20200;-75
2024/03/19 13:43:50;;;;;;;15.90;3.78;;;6.50;99.90;;;;;;5091350;28;20307;-75
2024/03/19 13:46:17;;;;;;;0.70;0.70;;;6.20;99.90;;;;;;5092836;28;20192;-75
2024/03/19 13:48:43;;;;;;;0.70;0.70;;;6.00;99.90;;;;;;5092517;28;20235;-75
2024/03/19 13:51:09;;;;;;;1.20;1.10;;;5.90;99.90;;;;;;5092484;28;20196;-75
2024/03/19 13:53:35;;;;;;;0.70;0.70;;;5.70;99.90;;;;;;5092428;28;20192;-75
2024/03/19 13:56:02;;;;;;;0.60;0.60;;;5.50;99.90;;;;;;5091266;28;20566;-75
2024/03/19 13:58:28;;;;;;;0.70;0.70;;;5.20;99.90;;;;;;5091178;28;20208;-74
2024/03/19 14:00:56;;;;;;;0.70;0.70;;;5.30;99.90;;;;;;5095792;28;20682;-75
2024/03/19 14:03:23;;;;;;;0.68;0.68;;;5.50;99.90;;;;;;5096592;28;20215;-75
2024/03/19 14:05:49;;;;;;;0.70;0.70;;;5.30;99.90;;;;;;5096248;28;20306;-75
2024/03/19 14:08:16;;;;;;;0.68;0.68;;;5.30;99.90;;;;;;5095190;28;20291;-75
2024/03/19 14:10:50;;;;;;;0.70;0.70;;;5.30;99.90;;;;;;5096277;28;20275;-75
2024/03/19 14:13:16;;;;;;;0.70;0.70;;;5.30;99.90;;;;;;5096330;28;20527;-75
2024/03/19 14:15:43;;;;;;;0.60;0.60;;;5.40;99.90;;;;;;5096126;28;20267;-75
2024/03/19 14:18:09;;;;;;;0.60;0.60;;;5.30;99.90;;;;;;5094930;28;20726;-75
2024/03/19 14:20:38;;;;;;;0.50;0.50;;;5.40;99.90;;;;;;5095908;28;20549;-75
2024/03/19 14:23:05;;;;;;;0.52;0.52;;;5.60;99.90;;;;;;5096093;28;20576;-75
2024/03/19 14:25:35;;;;;;;0.70;0.70;;;5.30;99.90;;;;;;5095927;28;20602;-75
2024/03/19 14:28:02;;;;;;;0.98;0.98;;;5.20;99.90;;;;;;5095089;28;20660;-75
2024/03/19 14:30:28;;;;;;;0.80;0.80;;;5.10;99.90;;;;;;5094613;28;20568;-75
2024/03/19 14:32:56;;;;;;;0.60;0.60;;;5.10;99.90;;;;;;5095935;28;20275;-75
2024/03/19 14:35:22;;;;;;;0.70;0.70;;;5.20;99.90;;;;;;5095835;28;20199;-75
2024/03/19 14:37:48;;;;;;;0.60;0.60;;;5.20;99.90;;;;;;5094496;28;20246;-75
2024/03/19 14:40:14;;;;;;;0.60;0.60;;;5.10;99.90;;;;;;5094601;28;20204;-75
2024/03/19 14:42:39;;;;;;;0.60;0.60;;;5.10;99.90;;;;;;5095869;28;20215;-75
2024/03/19 14:45:07;;;;;;;0.68;0.68;;;4.90;99.90;;;;;;5095765;28;20684;-75
2024/03/19 14:47:35;;;;;;;0.80;0.80;;;4.90;99.90;;;;;;5094097;28;20666;-75
2024/03/19 14:50:04;;;;;;;0.60;0.60;;;4.90;99.90;;;;;;5093793;28;20720;-75
2024/03/19 14:52:31;;;;;;;0.60;0.60;;;4.80;99.90;;;;;;5093785;28;20563;-75
2024/03/19 14:54:59;;;;;;;0.70;0.70;;;4.80;99.90;;;;;;5092861;28;20196;-75
2024/03/19 14:57:28;;;;;;;0.80;0.80;;;4.90;99.90;;;;;;5095130;28;20246;-75
2024/03/19 14:59:54;;;;;;;0.90;0.90;;;4.90;99.90;;;;;;5094756;28;20204;-76
2024/03/19 15:02:20;;;;;;;0.60;0.60;;;5.00;99.90;;;;;;5094677;28;20210;-75
2024/03/19 15:04:46;;;;;;;0.70;0.70;;;5.00;99.90;;;;;;5095077;28;20224;-75
2024/03/19 15:07:12;;;;;;;0.52;0.52;;;4.80;99.90;;;;;;5095347;28;20196;-79
2024/03/19 15:09:38;;;;;;;0.65;0.65;;;4.80;99.90;;;;;;5094135;28;20702;-80
2024/03/19 15:12:08;;;;;;;0.57;0.57;;;4.70;99.90;;;;;;5094536;28;20271;-79
2024/03/19 15:14:35;;;;;;;0.70;0.70;;;4.70;99.90;;;;;;5095001;28;20253;-81
2024/03/19 15:17:01;;;;;;;0.70;0.70;;;4.60;99.90;;;;;;5095353;28;20621;-80
2024/03/19 15:19:28;;;;;;;0.52;0.52;;;4.60;99.90;;;;;;5095073;28;20249;-80
2024/03/19 15:21:54;;;;;;;0.70;0.70;;;4.60;99.90;;;;;;5094849;28;20204;-79
2024/03/19 15:24:20;;;;;;;0.82;0.82;;;4.60;99.90;;;;;;5094879;28;20212;-79
2024/03/19 15:26:46;;;;;;;0.68;0.68;;;4.70;99.90;;;;;;5095142;28;20195;-80
2024/03/19 15:29:12;;;;;;;0.70;0.70;;;4.70;99.90;;;;;;5094947;28;20203;-79
2024/03/19 15:31:37;;;;;;;0.70;0.70;;;4.60;99.90;;;;;;5094857;28;20203;-77
2024/03/19 15:34:03;;;;;;;0.60;0.60;;;4.60;99.90;;;;;;5093434;28;20216;-79
2024/03/19 15:36:30;;;;;;;0.70;0.70;;;4.60;99.90;;;;;;5094760;28;20204;-78
2024/03/19 15:38:56;;;;;;;0.68;0.68;;;4.60;99.90;;;;;;5093529;28;20595;-80
2024/03/19 15:41:21;;;;;;;0.70;0.70;;;4.60;99.90;;;;;;5093342;28;20204;-79
2024/03/19 15:43:47;;;;;;;0.70;0.70;;;4.70;99.90;;;;;;5094595;28;20324;-81
2024/03/19 15:46:13;;;;;;;0.82;0.82;;;4.70;99.90;;;;;;5094937;28;20188;-79